Bennettsville, SC (29512)

5:30 PM EST on February 11, 2016 (GMT -0500)
Marlboro County-Avent | | Change Station
CLOSE
Current Station
Airport
Location: Bennettsville,
Elevation: 148 ft
Nearby Weather Stations
Active Advisory: Winter Weather Advisory

Elev 148 ft 34.62 °N, 79.73 °W | Updated 15 minutes ago

Clear
Clear
48 °F
Feels Like 48 °F
N
6
Wind Variable Wind from NW

Today
High -- | Low -- °F
--% Chance of Precip.
Yesterday
High -- | Low -- °F
Precip. -- in
Pressure 30.17 in
Visibility 10.0 miles
Clouds Clear
Dew Point 25 °F
Humidity 40%
Rainfall 0.00 in
Snow Depth Not available.
7:08 AM 5:57 PM
Waxing Crescent, 15% visible
METAR KBBP 112215Z AUTO 31005KT 10SM CLR 09/M04 A3017 RMK AO2
Pressure 30.17 in
Visibility 10.0 miles
Clouds Clear
Dew Point 25 °F
Humidity 40%
Rainfall 0.00 in
Snow Depth Not available.
7:08 AM 5:57 PM
Waxing Crescent, 15% visible
METAR KBBP 112215Z AUTO 31005KT 10SM CLR 09/M04 A3017 RMK AO2

10-Day Weather Forecast

Almanac

Astronomy

Feb. 11, 2016 Rise Set
Actual Time
Civil Twilight
Nautical Twilight
Astronomical Twilight
Moon
Length of Visible Light
Length of Day
Tomorrow will be .
, % of the Moon is Illuminated

Today's Extremes

State Highs State Lows

Community

WunderPhotos

Upload Photos

1,892,172 photos uploaded!

WunderBlog® & News

Nearby

Air Quality

  Air Quality AQ Index Pollutant
Not available.

Snow Depth

Station Depth Elevation

Earthquake Activity

City Distance Mag. Time & Date
Minimum magnitude displayed is 2.5.

Coastal Water Temperatures

Place Temperature

Stations

Nearby Weather Stations

Station Location Temp. Windchill Dew Point Humidity Wind Precip. Elev Updated Type
                   

Watches & Warnings

Winter Weather Advisory
Issued: 3:31 PM EST Feb. 11, 2016 – National Weather Service

... Winter Weather Advisory in effect from 5 am to 6 PM EST
Friday...

The National Weather Service in Wilmington has issued a Winter
Weather Advisory for freezing rain... snow and sleet... which is in
effect from 5 am to 6 PM EST Friday.

* Locations... Robeson... Bladen... Pender County except for the
immediate coast... Columbus... Marlboro and Dillon counties.

* Hazard types... freezing rain... snow and sleet.

* Accumulations... ice accumulation of up to a tenth of an inch.
Snow and sleet accumulation of up to around a quarter of an
inch.

* Timing... Friday morning and afternoon.

* Impacts... roadways and walkways will likely become very
slippery. Bridges and overpasses will be especially dangerous.

* Winds... northeast 5 to 10 mph.

* Temperatures... upper 20s early Friday morning... rising slowly to
around freezing and just above 32 degrees during the afternoon.

Precautionary/preparedness actions...

A Winter Weather Advisory means that periods of freezing rain...
snow... and sleet will cause travel difficulties. Be prepared for
slippery roads and limited visibilities... and use caution while
driving.


27